Terminal Aerodrome Forecast
Issued by NWS

Home | Current Version | Previous Version | Graphics & Text | Print | Product List | Glossary On
Versions: 1 2 3 4 5 6 7 8 9 10 11 12 13 14 15 16 17 18 19 20 21 22 23 24 25 26
813
FTUS43 KLOT 181735
TAFDPA
TAF
KDPA 181735Z 1818/1918 10015G24KT 6SM -SHRA OVC025
     FM181900 05014G21KT 5SM -DZRA BR SCT010 OVC015
     FM182100 03012G20KT 2SM -DZRA BR OVC008
     FM182300 35013G21KT 1SM -SN BR OVC008
     FM190700 35012G18KT P6SM BKN015 OVC030
     FM191300 34010KT P6SM SCT030=

USA.gov is the U.S. government's official web portal to all federal, state and local government web resources and services.